WJA118 CYLW-CYVR
Flight info
| Callsign | WJA118 |
|---|---|
| Flight time | 0h 29m |
| Altitude | 28000 |
| Route | MRYT6 MERYT DCT BOOTH CANUC6 |
| Aircraft | B738/M-L/C |
Departure
| Time | 2026-05-05 00:48 |
|---|---|
| Airport | Kelowna International Airport (CYLW) |
Arrival
| Time | 2026-05-05 01:18 |
|---|---|
| Airport | Vancouver International Airport (CYVR) |
| Time | Latitude | Longitude | Altitude | Speed | Heading |
|---|---|---|---|---|---|
| 2026-05-05 00:25 | 49.95193 | -119.38017 | 1461 ft | 0 kts | 274° |
| 2026-05-05 00:41 | 49.95193 | -119.38016 | 1461 ft | 0 kts | 274° |
| 2026-05-05 00:42 | 49.95192 | -119.38007 | 1461 ft | 0 kts | 275° |
| 2026-05-05 00:42 | 49.95193 | -119.37986 | 1461 ft | 2 kts | 248° |
| 2026-05-05 00:42 | 49.95202 | -119.37965 | 1461 ft | 2 kts | 220° |
| 2026-05-05 00:42 | 49.95215 | -119.37954 | 1461 ft | 2 kts | 192° |
| 2026-05-05 00:43 | 49.95224 | -119.37952 | 1461 ft | 1 kts | 175° |
| 2026-05-05 00:43 | 49.95231 | -119.37954 | 1461 ft | 0 kts | 174° |
| 2026-05-05 00:45 | 49.95227 | -119.37953 | 1461 ft | 3 kts | 174° |
| 2026-05-05 00:45 | 49.95195 | -119.37948 | 1461 ft | 5 kts | 174° |
| 2026-05-05 00:45 | 49.95152 | -119.37922 | 1461 ft | 8 kts | 128° |
| 2026-05-05 00:45 | 49.95099 | -119.37857 | 1462 ft | 11 kts | 168° |
| 2026-05-05 00:46 | 49.95008 | -119.37840 | 1462 ft | 14 kts | 176° |
| 2026-05-05 00:46 | 49.94915 | -119.37827 | 1462 ft | 10 kts | 173° |
| 2026-05-05 00:46 | 49.94876 | -119.37821 | 1462 ft | 3 kts | 175° |
| 2026-05-05 00:46 | 49.94843 | -119.37816 | 1462 ft | 5 kts | 172° |
| 2026-05-05 00:47 | 49.94823 | -119.37807 | 1462 ft | 0 kts | 160° |
| 2026-05-05 00:47 | 49.94821 | -119.37806 | 1462 ft | 1 kts | 159° |
| 2026-05-05 00:47 | 49.94791 | -119.37776 | 1462 ft | 7 kts | 135° |
| 2026-05-05 00:47 | 49.94770 | -119.37704 | 1462 ft | 8 kts | 75° |
| 2026-05-05 00:48 | 49.94842 | -119.37678 | 1462 ft | 18 kts | 355° |
| 2026-05-05 00:48 | 49.95272 | -119.37736 | 1461 ft | 102 kts | 355° |
| 2026-05-05 00:48 | 49.96238 | -119.37867 | 1560 ft | 163 kts | 354° |
| 2026-05-05 00:48 | 49.97438 | -119.38003 | 2457 ft | 170 kts | 356° |
| 2026-05-05 00:49 | 49.98735 | -119.38163 | 3395 ft | 179 kts | 356° |
| 2026-05-05 00:49 | 50.00080 | -119.38374 | 4395 ft | 182 kts | 352° |
| 2026-05-05 00:49 | 50.01405 | -119.38906 | 5355 ft | 188 kts | 342° |
| 2026-05-05 00:49 | 50.02768 | -119.39655 | 6284 ft | 196 kts | 342° |
| 2026-05-05 00:50 | 50.04210 | -119.40440 | 7177 ft | 208 kts | 342° |
| 2026-05-05 00:50 | 50.05812 | -119.41277 | 7835 ft | 234 kts | 342° |
| 2026-05-05 00:50 | 50.07514 | -119.42110 | 8979 ft | 236 kts | 343° |
| 2026-05-05 00:50 | 50.09169 | -119.43211 | 10042 ft | 241 kts | 328° |
| 2026-05-05 00:51 | 50.10515 | -119.45035 | 10977 ft | 250 kts | 310° |
| 2026-05-05 00:51 | 50.11383 | -119.47461 | 12028 ft | 254 kts | 291° |
| 2026-05-05 00:51 | 50.11696 | -119.50523 | 12896 ft | 270 kts | 274° |
| 2026-05-05 00:51 | 50.11435 | -119.53690 | 13928 ft | 278 kts | 261° |
| 2026-05-05 00:52 | 50.10749 | -119.56838 | 15154 ft | 275 kts | 256° |
| 2026-05-05 00:52 | 50.10029 | -119.60001 | 15874 ft | 287 kts | 258° |
| 2026-05-05 00:52 | 50.09307 | -119.63387 | 16705 ft | 295 kts | 258° |
| 2026-05-05 00:52 | 50.08605 | -119.66650 | 17506 ft | 301 kts | 257° |
| 2026-05-05 00:53 | 50.07919 | -119.69757 | 18303 ft | 304 kts | 257° |
| 2026-05-05 00:53 | 50.07170 | -119.73099 | 19084 ft | 309 kts | 257° |
| 2026-05-05 00:53 | 50.06440 | -119.76333 | 19810 ft | 314 kts | 258° |
| 2026-05-05 00:53 | 50.05673 | -119.79724 | 20568 ft | 318 kts | 258° |
| 2026-05-05 00:54 | 50.04833 | -119.83441 | 21325 ft | 323 kts | 258° |
| 2026-05-05 00:54 | 50.03975 | -119.87241 | 22042 ft | 328 kts | 259° |
| 2026-05-05 00:54 | 50.03093 | -119.91132 | 22843 ft | 331 kts | 259° |
| 2026-05-05 00:54 | 50.02242 | -119.94881 | 23553 ft | 334 kts | 259° |
| 2026-05-05 00:55 | 50.01391 | -119.98621 | 24231 ft | 337 kts | 259° |
| 2026-05-05 00:55 | 50.00605 | -120.02076 | 24754 ft | 342 kts | 260° |
| 2026-05-05 00:55 | 49.99810 | -120.05564 | 25306 ft | 345 kts | 260° |
| 2026-05-05 00:55 | 49.98930 | -120.09421 | 25794 ft | 350 kts | 260° |
| 2026-05-05 00:56 | 49.97995 | -120.13500 | 26404 ft | 352 kts | 260° |
| 2026-05-05 00:56 | 49.97046 | -120.17632 | 26932 ft | 357 kts | 260° |
| 2026-05-05 00:56 | 49.96104 | -120.21738 | 27408 ft | 361 kts | 260° |
| 2026-05-05 00:56 | 49.95151 | -120.25879 | 27924 ft | 364 kts | 261° |
| 2026-05-05 00:57 | 49.94172 | -120.30155 | 28010 ft | 380 kts | 260° |
| 2026-05-05 00:57 | 49.92139 | -120.38937 | 28013 ft | 388 kts | 259° |
| 2026-05-05 00:57 | 49.91106 | -120.43423 | 28003 ft | 403 kts | 259° |
| 2026-05-05 00:58 | 49.90018 | -120.48145 | 27995 ft | 418 kts | 259° |
| 2026-05-05 00:58 | 49.88968 | -120.52685 | 27986 ft | 432 kts | 258° |
| 2026-05-05 00:58 | 49.87809 | -120.57666 | 27988 ft | 445 kts | 258° |
| 2026-05-05 00:58 | 49.86610 | -120.62801 | 27981 ft | 459 kts | 258° |
| 2026-05-05 00:59 | 49.85472 | -120.67658 | 27982 ft | 472 kts | 257° |
| 2026-05-05 00:59 | 49.84306 | -120.72615 | 27979 ft | 484 kts | 257° |
| 2026-05-05 00:59 | 49.83063 | -120.77872 | 27979 ft | 490 kts | 257° |
| 2026-05-05 00:59 | 49.81775 | -120.83280 | 27981 ft | 489 kts | 256° |
| 2026-05-05 01:00 | 49.80445 | -120.88840 | 27983 ft | 490 kts | 256° |
| 2026-05-05 01:00 | 49.79151 | -120.94238 | 27975 ft | 490 kts | 256° |
| 2026-05-05 01:00 | 49.77811 | -120.99823 | 27976 ft | 487 kts | 256° |
| 2026-05-05 01:00 | 49.76500 | -121.05281 | 27987 ft | 490 kts | 256° |
| 2026-05-05 01:01 | 49.75141 | -121.10946 | 27998 ft | 490 kts | 256° |
| 2026-05-05 01:01 | 49.72490 | -121.21964 | 28014 ft | 489 kts | 256° |
| 2026-05-05 01:02 | 49.69792 | -121.33133 | 28002 ft | 488 kts | 256° |
| 2026-05-05 01:02 | 49.68444 | -121.38683 | 27819 ft | 480 kts | 256° |
| 2026-05-05 01:02 | 49.67166 | -121.43925 | 26870 ft | 479 kts | 256° |
| 2026-05-05 01:02 | 49.65844 | -121.49352 | 25470 ft | 483 kts | 256° |
| 2026-05-05 01:03 | 49.64532 | -121.54733 | 23844 ft | 479 kts | 256° |
| 2026-05-05 01:03 | 49.63207 | -121.60135 | 22445 ft | 470 kts | 255° |
| 2026-05-05 01:03 | 49.61926 | -121.65340 | 21268 ft | 457 kts | 254° |
| 2026-05-05 01:03 | 49.60759 | -121.70052 | 20273 ft | 444 kts | 254° |
| 2026-05-05 01:04 | 49.59616 | -121.74675 | 19161 ft | 435 kts | 253° |
| 2026-05-05 01:04 | 49.57341 | -121.83881 | 17132 ft | 413 kts | 253° |
| 2026-05-05 01:04 | 49.56222 | -121.88399 | 16212 ft | 400 kts | 253° |
| 2026-05-05 01:05 | 49.55146 | -121.92736 | 15282 ft | 391 kts | 253° |
| 2026-05-05 01:05 | 49.54099 | -121.96953 | 14450 ft | 379 kts | 252° |
| 2026-05-05 01:05 | 49.53057 | -122.01103 | 13621 ft | 369 kts | 251° |
| 2026-05-05 01:05 | 49.51891 | -122.04932 | 12860 ft | 360 kts | 246° |
| 2026-05-05 01:06 | 49.50633 | -122.08527 | 12282 ft | 348 kts | 243° |
| 2026-05-05 01:06 | 49.49305 | -122.11942 | 12058 ft | 329 kts | 241° |
| 2026-05-05 01:06 | 49.48038 | -122.15057 | 12020 ft | 314 kts | 241° |
| 2026-05-05 01:06 | 49.46785 | -122.18117 | 12027 ft | 310 kts | 241° |
| 2026-05-05 01:07 | 49.45570 | -122.21137 | 11868 ft | 305 kts | 242° |
| 2026-05-05 01:07 | 49.44381 | -122.24129 | 11410 ft | 306 kts | 242° |
| 2026-05-05 01:07 | 49.43164 | -122.27207 | 11027 ft | 305 kts | 242° |
| 2026-05-05 01:07 | 49.41970 | -122.30219 | 10624 ft | 304 kts | 242° |
| 2026-05-05 01:08 | 49.40766 | -122.33248 | 10232 ft | 301 kts | 240° |
| 2026-05-05 01:08 | 49.39539 | -122.35944 | 9876 ft | 300 kts | 234° |
| 2026-05-05 01:08 | 49.38024 | -122.38676 | 9486 ft | 299 kts | 230° |
| 2026-05-05 01:08 | 49.36453 | -122.41325 | 9121 ft | 296 kts | 229° |
| 2026-05-05 01:09 | 49.34958 | -122.43829 | 9036 ft | 283 kts | 229° |
| 2026-05-05 01:09 | 49.33542 | -122.46210 | 9038 ft | 273 kts | 230° |
| 2026-05-05 01:09 | 49.32132 | -122.48599 | 9010 ft | 273 kts | 230° |
| 2026-05-05 01:09 | 49.30783 | -122.50893 | 8768 ft | 270 kts | 230° |
| 2026-05-05 01:10 | 49.29427 | -122.53204 | 8265 ft | 272 kts | 230° |
| 2026-05-05 01:10 | 49.28109 | -122.55449 | 7802 ft | 269 kts | 230° |
| 2026-05-05 01:10 | 49.26804 | -122.57674 | 7314 ft | 267 kts | 231° |
| 2026-05-05 01:10 | 49.25554 | -122.59808 | 7006 ft | 260 kts | 230° |
| 2026-05-05 01:11 | 49.24329 | -122.61900 | 7008 ft | 263 kts | 230° |
| 2026-05-05 01:11 | 49.23084 | -122.64024 | 6904 ft | 261 kts | 230° |
| 2026-05-05 01:11 | 49.21893 | -122.66050 | 6558 ft | 258 kts | 230° |
| 2026-05-05 01:11 | 49.20721 | -122.68156 | 6083 ft | 258 kts | 236° |
| 2026-05-05 01:12 | 49.19732 | -122.70407 | 5579 ft | 256 kts | 239° |
| 2026-05-05 01:12 | 49.18813 | -122.72722 | 5098 ft | 254 kts | 241° |
| 2026-05-05 01:12 | 49.17915 | -122.75006 | 4962 ft | 246 kts | 240° |
| 2026-05-05 01:12 | 49.17034 | -122.77217 | 4612 ft | 243 kts | 240° |
| 2026-05-05 01:13 | 49.16277 | -122.79427 | 4472 ft | 226 kts | 253° |
| 2026-05-05 01:13 | 49.16088 | -122.81724 | 4190 ft | 215 kts | 277° |
| 2026-05-05 01:13 | 49.16301 | -122.83913 | 4034 ft | 203 kts | 282° |
| 2026-05-05 01:13 | 49.16558 | -122.85980 | 4030 ft | 201 kts | 282° |
| 2026-05-05 01:14 | 49.16814 | -122.88114 | 3729 ft | 207 kts | 281° |
| 2026-05-05 01:14 | 49.17066 | -122.90288 | 3349 ft | 207 kts | 281° |
| 2026-05-05 01:14 | 49.17314 | -122.92427 | 3063 ft | 204 kts | 281° |
| 2026-05-05 01:14 | 49.17562 | -122.94544 | 2798 ft | 202 kts | 281° |
| 2026-05-05 01:15 | 49.17807 | -122.96624 | 2518 ft | 199 kts | 281° |
| 2026-05-05 01:15 | 49.18049 | -122.98691 | 2246 ft | 196 kts | 281° |
| 2026-05-05 01:15 | 49.18277 | -123.00645 | 1977 ft | 183 kts | 280° |
| 2026-05-05 01:15 | 49.18492 | -123.02504 | 1744 ft | 170 kts | 280° |
| 2026-05-05 01:16 | 49.18693 | -123.04242 | 1536 ft | 166 kts | 279° |
| 2026-05-05 01:16 | 49.18887 | -123.05909 | 1324 ft | 156 kts | 279° |
| 2026-05-05 01:16 | 49.19072 | -123.07514 | 1114 ft | 146 kts | 280° |
| 2026-05-05 01:16 | 49.19244 | -123.08995 | 921 ft | 143 kts | 279° |
| 2026-05-05 01:17 | 49.19413 | -123.10470 | 743 ft | 140 kts | 279° |
| 2026-05-05 01:17 | 49.19582 | -123.11938 | 564 ft | 141 kts | 279° |
| 2026-05-05 01:17 | 49.19750 | -123.13393 | 375 ft | 139 kts | 278° |
| 2026-05-05 01:17 | 49.19926 | -123.14871 | 208 ft | 142 kts | 278° |
| 2026-05-05 01:18 | 49.20097 | -123.16382 | 44 ft | 145 kts | 280° |
| 2026-05-05 01:18 | 49.20246 | -123.17698 | 9 ft | 95 kts | 279° |
| 2026-05-05 01:18 | 49.20312 | -123.18349 | 9 ft | 30 kts | 263° |
| 2026-05-05 01:18 | 49.20266 | -123.18603 | 8 ft | 10 kts | 253° |
| 2026-05-05 01:19 | 49.20250 | -123.18687 | 8 ft | 5 kts | 253° |
| 2026-05-05 01:19 | 49.20238 | -123.18741 | 8 ft | 4 kts | 251° |
| 2026-05-05 01:19 | 49.20223 | -123.18806 | 8 ft | 8 kts | 250° |
| 2026-05-05 01:19 | 49.20173 | -123.18845 | 8 ft | 9 kts | 149° |
| 2026-05-05 01:20 | 49.20148 | -123.18741 | 8 ft | 12 kts | 99° |
| 2026-05-05 01:20 | 49.20133 | -123.18590 | 8 ft | 12 kts | 99° |
| 2026-05-05 01:20 | 49.20071 | -123.18506 | 8 ft | 14 kts | 182° |
| 2026-05-05 01:20 | 49.19960 | -123.18533 | 8 ft | 17 kts | 190° |
| 2026-05-05 01:21 | 49.19842 | -123.18565 | 8 ft | 15 kts | 190° |
| 2026-05-05 01:21 | 49.19750 | -123.18609 | 8 ft | 14 kts | 215° |
| 2026-05-05 01:21 | 49.19660 | -123.18681 | 8 ft | 15 kts | 193° |
| 2026-05-05 01:21 | 49.19544 | -123.18713 | 8 ft | 17 kts | 190° |
| 2026-05-05 01:22 | 49.19424 | -123.18716 | 8 ft | 18 kts | 159° |
| 2026-05-05 01:22 | 49.19292 | -123.18710 | 8 ft | 18 kts | 190° |
| 2026-05-05 01:22 | 49.19175 | -123.18703 | 8 ft | 18 kts | 149° |
| 2026-05-05 01:22 | 49.19161 | -123.18555 | 8 ft | 14 kts | 97° |
| 2026-05-05 01:23 | 49.19106 | -123.18433 | 8 ft | 12 kts | 97° |
| 2026-05-05 01:23 | 49.19121 | -123.18314 | 8 ft | 12 kts | 86° |
| 2026-05-05 01:23 | 49.19145 | -123.18221 | 8 ft | 10 kts | 15° |
| 2026-05-05 01:23 | 49.19188 | -123.18208 | 8 ft | 0 kts | 10° |